Royal City, Washington
Current Conditions -  °F | °C
As of 7:52 PM on Thursday 27 Nov 2014 (Local Time) from KMWH Reporting Station
Clear Clear  
Wind Chill: 52°   Ceiling: Unl
Heat Index: 52°   Visibility: 10mi
Dew Point: 42°   Wind: 10mph
Humidity: 69%   Direction: 200°SSW
Pressure: 29.74"   Gusts: NA
Location:  46.9°N, 119.63°W
Report Text: KMWH 280352Z 20009KT 10SM CLR 11/06 A2974 RMK AO2 SLP076 T01110056
Loading
Personal Weather Stations






























Interactive Weather Map New forecast layout! Learn more

10-Day Weather Forecast

Advertisements
Track Severe Weather on mobile